createdAt,value
2022-09-10T04:31:05.143Z,99.90
2022-09-10T04:33:33.204Z,99.90
2022-09-10T04:36:02.871Z,99.90
2022-09-10T04:38:30.426Z,99.90
2022-09-10T04:40:58.150Z,99.90
2022-09-10T04:43:28.287Z,99.90
2022-09-10T04:45:55.712Z,99.90
2022-09-10T04:48:23.181Z,99.90
2022-09-10T04:51:14.690Z,99.90
2022-09-10T04:53:41.815Z,99.90
2022-09-10T04:56:09.039Z,99.90
2022-09-10T04:58:38.943Z,99.90
2022-09-10T05:01:06.581Z,99.90
2022-09-10T05:03:33.834Z,99.90
2022-09-10T05:06:00.908Z,99.90
2022-09-10T05:08:27.673Z,99.90
2022-09-10T05:10:54.499Z,99.90
2022-09-10T05:13:21.230Z,99.90
2022-09-10T05:15:48.058Z,99.90
2022-09-10T05:18:16.649Z,99.90
2022-09-10T05:20:44.893Z,99.90
2022-09-10T05:23:11.937Z,99.90
2022-09-10T05:25:39.220Z,99.90
2022-09-10T05:28:06.134Z,99.90
2022-09-10T05:30:33.159Z,99.90
2022-09-10T05:33:01.114Z,99.90
2022-09-10T05:35:29.000Z,99.90
2022-09-10T05:37:59.127Z,99.90
2022-09-10T05:40:26.090Z,99.90
2022-09-10T05:42:54.199Z,99.90
2022-09-10T05:45:21.586Z,99.90
2022-09-10T05:47:48.823Z,99.90
2022-09-10T05:50:17.252Z,99.90
2022-09-10T05:52:44.532Z,99.90
2022-09-10T05:55:12.387Z,99.90
2022-09-10T05:57:40.406Z,99.90
2022-09-10T06:00:09.291Z,99.90
2022-09-10T06:02:37.062Z,99.90
2022-09-10T06:05:04.263Z,99.90
2022-09-10T06:07:31.760Z,99.90
2022-09-10T06:09:58.501Z,99.90
2022-09-10T06:12:25.278Z,99.90
2022-09-10T06:14:52.726Z,99.90
2022-09-10T06:17:20.067Z,99.90
2022-09-10T06:19:47.189Z,99.90
2022-09-10T06:22:14.548Z,99.90
2022-09-10T06:24:41.278Z,99.90
2022-09-10T06:27:09.631Z,99.90
2022-09-10T06:29:39.462Z,99.90
2022-09-10T06:32:06.339Z,99.90
2022-09-10T06:34:33.142Z,99.90
2022-09-10T06:37:01.135Z,99.90
2022-09-10T06:39:28.781Z,99.90
2022-09-10T06:41:55.447Z,99.90
2022-09-10T06:44:22.427Z,99.90
2022-09-10T06:49:36.650Z,99.90
2022-09-10T06:52:03.591Z,99.90
2022-09-10T06:54:30.335Z,99.90
2022-09-10T06:56:57.854Z,99.90
2022-09-10T06:59:24.608Z,99.90
2022-09-10T07:01:51.394Z,99.90
2022-09-10T07:04:18.219Z,99.90
2022-09-10T07:06:45.960Z,99.90
2022-09-10T07:09:12.816Z,99.90
2022-09-10T07:11:41.726Z,99.90
2022-09-10T07:14:12.839Z,99.90
2022-09-10T07:16:44.603Z,99.90
2022-09-10T07:19:15.217Z,99.90
2022-09-10T07:21:41.995Z,99.90
2022-09-10T07:24:12.286Z,99.90
2022-09-10T07:26:39.086Z,99.90
2022-09-10T07:29:06.150Z,99.90
2022-09-10T07:31:34.977Z,99.90
2022-09-10T07:34:03.287Z,99.90
2022-09-10T07:36:31.231Z,99.90
2022-09-10T07:39:01.637Z,99.90
2022-09-10T07:41:29.967Z,99.90
2022-09-10T07:43:58.036Z,99.90
2022-09-10T07:46:25.747Z,99.90
2022-09-10T07:49:01.060Z,99.90
2022-09-10T07:51:30.119Z,99.90
2022-09-10T07:53:58.556Z,99.90
2022-09-10T07:56:25.805Z,99.90
2022-09-10T07:58:53.937Z,99.90
2022-09-10T08:01:21.382Z,99.90
2022-09-10T08:03:48.416Z,99.90
2022-09-10T08:06:16.025Z,99.90
2022-09-10T08:08:43.250Z,99.90
2022-09-10T08:11:16.599Z,99.90
2022-09-10T08:13:48.793Z,99.90
2022-09-10T08:16:19.199Z,99.90
2022-09-10T08:18:47.651Z,99.90
2022-09-10T08:21:15.622Z,99.90
2022-09-10T08:23:43.783Z,99.90
2022-09-10T08:26:10.556Z,99.90
2022-09-10T08:28:38.009Z,99.90
2022-09-10T08:31:09.923Z,99.90
2022-09-10T08:33:40.509Z,99.90
2022-09-10T08:36:11.991Z,99.90
2022-09-10T08:38:40.372Z,99.90
2022-09-10T08:41:19.161Z,99.90
2022-09-10T08:43:51.670Z,99.90
2022-09-10T08:46:32.155Z,99.90
2022-09-10T08:49:12.705Z,99.90
2022-09-10T08:52:04.111Z,99.90
2022-09-10T08:54:39.695Z,99.90
2022-09-10T08:57:22.156Z,99.90
2022-09-10T08:59:53.691Z,99.90
2022-09-10T09:02:49.890Z,99.90
2022-09-10T09:05:22.894Z,99.90
2022-09-10T09:07:51.093Z,99.90
2022-09-10T09:10:25.916Z,99.90
2022-09-10T09:13:07.626Z,99.90
2022-09-10T09:16:03.836Z,99.90
2022-09-10T09:18:56.551Z,99.90
2022-09-10T09:21:36.073Z,99.90
2022-09-10T09:24:13.469Z,99.90
2022-09-10T09:26:44.967Z,99.90
2022-09-10T09:29:30.410Z,99.90
2022-09-10T09:31:59.688Z,99.90
2022-09-10T09:34:50.510Z,99.90
2022-09-10T09:37:21.433Z,99.90
2022-09-10T09:40:13.579Z,99.90
2022-09-10T09:42:49.241Z,99.90
2022-09-10T09:45:38.477Z,99.90
2022-09-10T09:48:18.175Z,99.90
2022-09-10T09:50:50.967Z,99.90
2022-09-10T09:53:25.182Z,99.90
2022-09-10T09:56:00.738Z,99.90
2022-09-10T09:58:33.505Z,99.90
2022-09-10T10:01:06.163Z,99.90
2022-09-10T10:03:38.046Z,99.90
2022-09-10T10:06:12.171Z,99.90
2022-09-10T10:08:57.778Z,99.90
2022-09-10T10:11:45.238Z,99.90
2022-09-10T10:14:21.351Z,99.90
2022-09-10T10:16:49.480Z,99.90
2022-09-10T10:19:32.777Z,99.90
2022-09-10T10:22:14.890Z,99.90
2022-09-10T10:24:42.846Z,99.90
2022-09-10T10:27:42.650Z,99.90
2022-09-10T10:30:16.548Z,99.90
2022-09-10T10:32:58.625Z,99.90
2022-09-10T10:35:49.218Z,99.90
2022-09-10T10:38:23.368Z,99.90
2022-09-10T10:41:08.011Z,99.90
2022-09-10T10:43:59.589Z,99.90
2022-09-10T10:46:38.787Z,99.90
2022-09-10T10:49:25.813Z,99.90
2022-09-10T10:52:08.302Z,99.90
2022-09-10T10:54:47.305Z,99.90
2022-09-10T10:57:22.863Z,99.90
2022-09-10T11:00:13.653Z,99.90
2022-09-10T11:03:05.719Z,99.90
2022-09-10T11:05:46.533Z,99.90
2022-09-10T11:08:34.803Z,99.90
2022-09-10T11:11:28.930Z,99.90
2022-09-10T11:13:57.260Z,99.90
2022-09-10T11:16:40.433Z,99.90
2022-09-10T11:19:35.659Z,99.90
2022-09-10T11:22:30.970Z,99.90
2022-09-10T11:25:03.535Z,99.90
2022-09-10T11:27:46.183Z,99.90
2022-09-10T11:30:19.201Z,99.90
2022-09-10T11:32:48.913Z,99.90
2022-09-10T11:35:23.445Z,99.90
2022-09-10T11:38:06.111Z,99.90
2022-09-10T11:40:52.181Z,99.90
2022-09-10T11:43:42.346Z,99.90
2022-09-10T11:46:20.678Z,99.90
2022-09-10T11:48:52.171Z,99.90
2022-09-10T11:51:37.005Z,99.90
2022-09-10T11:54:13.379Z,99.90
2022-09-10T11:57:18.608Z,99.90
2022-09-10T12:00:18.608Z,99.90
2022-09-10T12:02:48.158Z,99.90
2022-09-10T12:05:50.590Z,99.90
2022-09-10T12:08:45.606Z,99.90
2022-09-10T12:11:48.310Z,99.90
2022-09-10T12:14:21.629Z,99.90
2022-09-10T12:16:51.082Z,99.90
2022-09-10T12:19:37.644Z,99.90
2022-09-10T12:22:09.256Z,99.90
2022-09-10T12:24:39.297Z,99.90
2022-09-10T12:27:07.811Z,99.90
2022-09-10T12:29:40.568Z,99.90
2022-09-10T12:32:28.580Z,99.90
2022-09-10T12:35:30.412Z,99.90
2022-09-10T12:38:34.387Z,99.90
2022-09-10T12:41:02.234Z,99.90
2022-09-10T12:43:53.795Z,99.90
2022-09-10T12:46:25.407Z,99.90
2022-09-10T12:48:55.416Z,99.90
2022-09-10T12:51:28.207Z,99.90
2022-09-10T12:54:04.100Z,99.90
2022-09-10T12:56:52.710Z,99.90
2022-09-10T12:59:40.461Z,99.90
2022-09-10T13:02:31.950Z,98.80
2022-09-10T13:05:03.178Z,98.00
2022-09-10T13:07:44.309Z,97.70
2022-09-10T13:10:16.392Z,96.80
2022-09-10T13:12:47.090Z,95.80
2022-09-10T13:15:25.548Z,94.40
2022-09-10T13:17:52.171Z,93.10
2022-09-10T13:20:21.674Z,93.80
2022-09-10T13:22:57.234Z,94.30
2022-09-10T13:25:40.395Z,93.50
2022-09-10T13:28:29.080Z,93.30
2022-09-10T13:31:19.344Z,94.60
2022-09-10T13:33:52.138Z,94.50
2022-09-10T13:36:43.471Z,95.60
2022-09-10T13:39:41.353Z,95.40
2022-09-10T13:42:20.759Z,95.20
2022-09-10T13:45:11.194Z,95.00
2022-09-10T13:47:47.227Z,95.30
2022-09-10T13:50:24.462Z,95.50
2022-09-10T13:52:56.129Z,95.70
2022-09-10T13:55:28.298Z,95.70
2022-09-10T13:58:00.111Z,96.80
2022-09-10T14:00:33.519Z,97.50
2022-09-10T14:03:00.467Z,98.00
2022-09-10T14:05:46.890Z,98.20
2022-09-10T14:08:43.843Z,98.70
2022-09-10T14:11:19.487Z,99.60
2022-09-10T14:13:55.544Z,99.90
2022-09-10T14:16:32.734Z,99.90
2022-09-10T14:19:04.057Z,99.90
2022-09-10T14:21:31.508Z,99.90
2022-09-10T14:23:59.431Z,99.20
2022-09-10T14:26:30.630Z,97.70
2022-09-10T14:29:03.955Z,96.10
2022-09-10T14:31:33.448Z,94.80
2022-09-10T14:34:24.118Z,94.90
2022-09-10T14:36:50.972Z,96.40
2022-09-10T14:39:20.426Z,98.00
2022-09-10T14:41:48.115Z,99.00
2022-09-10T14:44:23.931Z,99.60
2022-09-10T14:47:00.927Z,98.30
2022-09-10T14:49:30.789Z,98.40
2022-09-10T14:51:58.556Z,97.90
2022-09-10T14:54:30.181Z,97.00
2022-09-10T14:56:58.551Z,98.10
2022-09-10T14:59:34.550Z,97.50
2022-09-10T15:02:02.558Z,98.20
2022-09-10T15:04:30.160Z,98.90
2022-09-10T15:07:02.648Z,99.50
2022-09-10T15:09:30.044Z,98.40
2022-09-10T15:12:06.346Z,97.10
2022-09-10T15:14:33.605Z,97.90
2022-09-10T15:17:00.726Z,97.00
2022-09-10T15:19:27.913Z,96.50
2022-09-10T15:21:54.677Z,96.40
2022-09-10T15:24:22.875Z,95.00
2022-09-10T15:26:50.287Z,94.20
2022-09-10T15:29:17.956Z,95.30
2022-09-10T15:31:44.927Z,95.60
2022-09-10T15:34:11.762Z,97.00
2022-09-10T15:36:40.239Z,97.50
2022-09-10T15:39:08.779Z,96.80
2022-09-10T15:41:35.502Z,96.60
2022-09-10T15:44:03.042Z,96.60
2022-09-10T15:46:29.968Z,97.20
2022-09-10T15:48:59.487Z,97.60
2022-09-10T15:51:26.863Z,98.10
2022-09-10T15:53:54.546Z,98.80
2022-09-10T15:56:24.290Z,99.20
2022-09-10T15:58:54.987Z,99.60
2022-09-10T16:01:22.747Z,99.90
2022-09-10T16:03:53.295Z,99.90
2022-09-10T16:06:20.062Z,99.90
2022-09-10T16:08:58.083Z,99.90
2022-09-10T16:11:25.475Z,99.90
2022-09-10T16:13:52.544Z,99.90
2022-09-10T16:16:23.833Z,99.90
2022-09-10T16:18:52.248Z,99.90
2022-09-10T16:21:22.461Z,99.90
2022-09-10T16:23:51.167Z,99.90
2022-09-10T16:26:20.902Z,99.90
2022-09-10T16:28:57.091Z,99.90
2022-09-10T16:31:26.763Z,99.90
2022-09-10T16:33:55.215Z,99.90
2022-09-10T16:36:23.520Z,99.90
2022-09-10T16:38:55.691Z,99.90
2022-09-10T16:41:23.660Z,99.90
2022-09-10T16:43:51.217Z,99.90
2022-09-10T16:46:18.261Z,99.90
2022-09-10T16:48:45.767Z,99.90
2022-09-10T16:51:15.630Z,99.90
2022-09-10T16:53:44.370Z,99.90
2022-09-10T16:56:16.030Z,99.90
2022-09-10T16:58:46.972Z,99.90
2022-09-10T17:01:14.871Z,99.90
2022-09-10T17:03:43.548Z,99.90
2022-09-10T17:06:15.574Z,99.90
2022-09-10T17:08:42.702Z,99.90
2022-09-10T17:11:09.430Z,99.90
2022-09-10T17:13:36.143Z,99.90
2022-09-10T17:16:24.144Z,99.90
2022-09-10T17:19:02.665Z,99.90
2022-09-10T17:21:37.256Z,99.90
2022-09-10T17:24:06.446Z,99.90
2022-09-10T17:26:34.946Z,99.90
2022-09-10T17:29:07.213Z,99.90
2022-09-10T17:31:35.561Z,99.90
2022-09-10T17:34:03.701Z,99.90
2022-09-10T17:36:31.146Z,99.90
2022-09-10T17:38:59.246Z,99.90
2022-09-10T17:41:28.075Z,99.90
2022-09-10T17:43:55.565Z,99.90
2022-09-10T17:46:24.014Z,99.90
2022-09-10T17:48:51.757Z,99.90
2022-09-10T17:51:24.503Z,99.90
2022-09-10T17:53:53.946Z,99.90
2022-09-10T17:56:21.888Z,99.90
2022-09-10T17:58:49.419Z,99.90
2022-09-10T18:01:23.739Z,99.90
2022-09-10T18:03:51.563Z,99.90
2022-09-10T18:06:18.852Z,99.90
2022-09-10T18:08:45.707Z,99.90
2022-09-10T18:11:16.627Z,99.90
2022-09-10T18:13:44.735Z,99.90
2022-09-10T18:16:16.777Z,99.90
2022-09-10T18:18:45.581Z,99.90
2022-09-10T18:21:21.055Z,99.90
2022-09-10T18:24:01.683Z,99.90
2022-09-10T18:26:30.551Z,99.90
2022-09-10T18:29:07.796Z,99.90
2022-09-10T18:31:37.358Z,99.90
2022-09-10T18:34:06.083Z,99.90
2022-09-10T18:36:34.050Z,99.90
2022-09-10T18:39:05.952Z,99.90
2022-09-10T18:41:37.895Z,99.90
2022-09-10T18:44:15.058Z,99.90
2022-09-10T18:46:42.405Z,99.90
2022-09-10T18:49:11.150Z,99.90
2022-09-10T18:51:37.815Z,99.90
2022-09-10T18:54:05.916Z,99.90
2022-09-10T18:56:32.583Z,99.90
2022-09-10T18:59:01.426Z,99.90
2022-09-10T19:01:30.317Z,99.90
2022-09-10T19:03:57.867Z,99.90
2022-09-10T19:06:32.593Z,99.90
2022-09-10T19:09:04.106Z,99.90
2022-09-10T19:11:33.522Z,99.90
2022-09-10T19:14:02.080Z,99.90
2022-09-10T19:16:31.379Z,99.90
2022-09-10T19:19:00.379Z,99.90
2022-09-10T19:21:29.436Z,99.90
2022-09-10T19:23:59.583Z,99.90
2022-09-10T19:26:28.571Z,99.90
2022-09-10T19:28:59.907Z,99.90
2022-09-10T19:31:28.459Z,99.90
2022-09-10T19:34:03.834Z,99.90
2022-09-10T19:36:33.398Z,99.90
2022-09-10T19:39:00.106Z,99.90
2022-09-10T19:41:27.052Z,99.90
2022-09-10T19:43:55.120Z,99.90
2022-09-10T19:46:24.863Z,99.90
2022-09-10T19:48:55.403Z,99.90
2022-09-10T19:51:22.074Z,99.90
2022-09-10T19:53:49.511Z,99.90
2022-09-10T19:56:20.636Z,99.90
2022-09-10T19:58:50.671Z,99.90
2022-09-10T20:01:20.287Z,99.90
2022-09-10T20:03:48.189Z,99.90
2022-09-10T20:06:18.353Z,99.90
2022-09-10T20:08:50.803Z,99.90
2022-09-10T20:11:27.469Z,99.90
2022-09-10T20:13:58.462Z,99.90
2022-09-10T20:16:26.120Z,99.90
2022-09-10T20:18:53.211Z,99.90
2022-09-10T20:21:27.815Z,99.90
2022-09-10T20:23:56.191Z,99.90
2022-09-10T20:26:24.138Z,99.90
2022-09-10T20:28:54.288Z,99.90
2022-09-10T20:31:22.946Z,99.90
2022-09-10T20:33:57.627Z,99.90
2022-09-10T20:36:25.498Z,99.90
2022-09-10T20:38:53.314Z,99.90
2022-09-10T20:41:20.804Z,99.90
2022-09-10T20:43:52.011Z,99.90
2022-09-10T20:46:22.207Z,99.90
2022-09-10T20:48:50.886Z,99.90
2022-09-10T20:51:19.113Z,99.90
2022-09-10T20:53:46.003Z,99.90
2022-09-10T20:56:15.174Z,99.90
2022-09-10T20:58:42.224Z,99.90
2022-09-10T21:01:20.479Z,99.90
2022-09-10T21:03:48.338Z,99.90
2022-09-10T21:06:20.872Z,99.90
2022-09-10T21:08:48.118Z,99.90
2022-09-10T21:11:17.064Z,99.90
2022-09-10T21:13:55.058Z,99.90
2022-09-10T21:16:29.103Z,99.90
2022-09-10T21:18:58.145Z,99.90
2022-09-10T21:21:26.997Z,99.90
2022-09-10T21:24:08.696Z,99.90
2022-09-10T21:26:39.149Z,99.90
2022-09-10T21:29:10.731Z,99.90
2022-09-10T21:31:37.740Z,99.90
2022-09-10T21:34:05.630Z,99.90
2022-09-10T21:36:34.852Z,99.90
2022-09-10T21:39:04.325Z,99.90
2022-09-10T21:41:32.348Z,99.90
2022-09-10T21:44:03.610Z,99.90
2022-09-10T21:46:32.294Z,99.90
2022-09-10T21:48:59.641Z,99.90
2022-09-10T21:51:26.966Z,99.90
2022-09-10T21:53:55.299Z,99.90
2022-09-10T21:56:23.126Z,99.90
2022-09-10T21:58:50.143Z,99.90
2022-09-10T22:01:19.630Z,99.90
2022-09-10T22:03:47.447Z,99.90
2022-09-10T22:06:15.607Z,99.90
2022-09-10T22:08:44.326Z,99.90
2022-09-10T22:11:29.230Z,99.90
2022-09-10T22:13:59.039Z,99.90
2022-09-10T22:16:25.864Z,99.90
2022-09-10T22:18:53.829Z,99.90
2022-09-10T22:21:20.844Z,99.90
2022-09-10T22:23:47.609Z,99.90
2022-09-10T22:26:18.070Z,99.90
2022-09-10T22:28:45.267Z,99.90
2022-09-10T22:31:22.137Z,99.90
2022-09-10T22:33:55.149Z,99.90
2022-09-10T22:36:24.482Z,99.90
2022-09-10T22:38:53.767Z,99.90
2022-09-10T22:41:21.482Z,99.90
2022-09-10T22:43:48.279Z,99.90
2022-09-10T22:46:15.552Z,99.90
2022-09-10T22:48:43.478Z,99.90
2022-09-10T22:51:13.806Z,99.90
2022-09-10T22:53:42.254Z,99.90
2022-09-10T22:56:09.963Z,99.90
2022-09-10T22:58:36.959Z,99.90
2022-09-10T23:01:09.852Z,99.90
2022-09-10T23:03:37.792Z,99.90
2022-09-10T23:06:11.934Z,99.90
2022-09-10T23:08:40.133Z,99.90
2022-09-10T23:11:12.562Z,99.90
2022-09-10T23:13:39.382Z,99.90
2022-09-10T23:16:11.300Z,99.90
2022-09-10T23:18:39.830Z,99.90
2022-09-10T23:21:08.255Z,99.90
2022-09-10T23:23:35.499Z,99.90
2022-09-10T23:26:07.334Z,99.90
2022-09-10T23:28:35.032Z,99.90
